Time;durP1;ratioP1;P1;durP2;ratioP2;P2;SDS_P1;SDS_P2;PMS_P1;PMS_P2;Temp;Humidity;BMP_temperature;BMP_pressure;BME280_temperature;BME280_humidity;BME280_pressure;Samples;Min_cycle;Max_cycle;Signal;HPM_P1;HPM_P2
2021/05/07 00:01:16;;;;;;;11.70;6.53;;;10.30;53.70;;;;;;5157680;27;20429;-79
2021/05/07 00:03:43;;;;;;;10.60;6.07;;;10.30;53.70;;;;;;5157647;27;20112;-79
2021/05/07 00:06:10;;;;;;;13.13;6.22;;;10.30;53.50;;;;;;5158185;27;20039;-78
2021/05/07 00:08:38;;;;;;;15.70;7.28;;;10.30;53.40;;;;;;5139363;27;20395;-78
2021/05/07 00:11:15;;;;;;;12.02;5.65;;;10.20;53.40;;;;;;5157470;27;20379;-78
2021/05/07 00:13:46;;;;;;;10.52;5.80;;;10.20;53.30;;;;;;5157290;27;20014;-78
2021/05/07 00:16:12;;;;;;;13.52;6.05;;;10.20;53.20;;;;;;5156425;27;20037;-78
2021/05/07 00:18:38;;;;;;;14.45;7.25;;;10.20;53.20;;;;;;5158087;27;20058;-78
2021/05/07 00:21:08;;;;;;;16.33;7.00;;;10.20;53.00;;;;;;5136514;27;20083;-78
2021/05/07 00:23:35;;;;;;;12.40;5.28;;;10.20;53.00;;;;;;5136661;27;20063;-78
2021/05/07 00:26:01;;;;;;;10.82;5.15;;;10.20;53.10;;;;;;5136039;27;20027;-78
2021/05/07 00:28:27;;;;;;;8.68;5.07;;;10.20;53.10;;;;;;5117906;27;20476;-79
2021/05/07 00:30:52;;;;;;;7.57;3.85;;;10.20;53.10;;;;;;5155277;27;20037;-79
2021/05/07 00:33:19;;;;;;;8.30;3.90;;;10.20;53.10;;;;;;5157386;27;20033;-78
2021/05/07 00:35:45;;;;;;;8.07;4.03;;;10.20;53.00;;;;;;5157084;27;20065;-78
2021/05/07 00:38:11;;;;;;;8.98;4.60;;;10.20;53.00;;;;;;5156905;27;20030;-78
2021/05/07 00:40:39;;;;;;;7.13;4.57;;;10.20;53.00;;;;;;5156704;27;20047;-78
2021/05/07 00:43:05;;;;;;;9.30;5.35;;;10.10;53.10;;;;;;5151238;27;20489;-78
2021/05/07 00:45:31;;;;;;;9.98;5.13;;;10.10;53.30;;;;;;5135644;27;20106;-78
2021/05/07 00:47:57;;;;;;;7.60;4.88;;;10.10;53.40;;;;;;5136342;27;20055;-78
2021/05/07 00:50:31;;;;;;;8.73;6.10;;;10.00;53.60;;;;;;5135807;27;20052;-78
2021/05/07 00:53:00;;;;;;;6.25;4.22;;;10.00;53.90;;;;;;5135873;27;20038;-78
2021/05/07 00:55:30;;;;;;;5.90;3.85;;;10.00;54.00;;;;;;5136096;27;20019;-78
2021/05/07 00:57:57;;;;;;;8.18;4.50;;;10.00;54.00;;;;;;5135642;27;20038;-78
2021/05/07 01:00:24;;;;;;;7.90;3.90;;;9.90;53.90;;;;;;5135619;27;20427;-78
2021/05/07 01:02:50;;;;;;;8.13;4.40;;;10.00;54.00;;;;;;5151566;27;20073;-78
2021/05/07 01:05:17;;;;;;;8.32;4.35;;;10.00;54.10;;;;;;5135891;27;20464;-78
2021/05/07 01:07:43;;;;;;;12.63;4.50;;;9.90;54.10;;;;;;5136204;27;20039;-79
2021/05/07 01:10:11;;;;;;;11.15;4.35;;;9.90;54.10;;;;;;5136330;27;20465;-78
2021/05/07 01:12:40;;;;;;;6.60;4.35;;;9.90;54.20;;;;;;5136033;27;20023;-79
2021/05/07 01:15:12;;;;;;;10.38;5.07;;;9.90;54.20;;;;;;5136176;27;20027;-79
2021/05/07 01:17:56;;;;;;;9.23;4.85;;;9.90;54.30;;;;;;5135545;27;20472;-79
2021/05/07 01:20:26;;;;;;;9.98;4.95;;;9.90;54.40;;;;;;5136547;27;20203;-79
2021/05/07 01:22:55;;;;;;;8.02;5.20;;;9.80;54.40;;;;;;5136364;27;20062;-79
2021/05/07 01:25:23;;;;;;;7.15;4.50;;;9.80;54.50;;;;;;5135833;27;20019;-79
2021/05/07 01:27:54;;;;;;;9.90;5.45;;;9.80;54.50;;;;;;5135052;27;20019;-79
2021/05/07 01:30:23;;;;;;;11.07;6.63;;;9.80;54.60;;;;;;5135659;27;20042;-79
2021/05/07 01:32:50;;;;;;;10.15;6.50;;;9.80;55.00;;;;;;5135773;27;20034;-79
2021/05/07 01:35:19;;;;;;;12.77;6.68;;;9.70;55.30;;;;;;5135782;27;20023;-79
2021/05/07 01:37:46;;;;;;;11.80;6.88;;;9.70;55.50;;;;;;5135805;27;20041;-79
2021/05/07 01:40:21;;;;;;;14.45;8.45;;;9.60;55.60;;;;;;5135870;27;20038;-79
2021/05/07 01:42:47;;;;;;;15.50;9.20;;;9.60;56.00;;;;;;5152388;27;20050;-79
2021/05/07 01:45:15;;;;;;;17.13;8.70;;;9.50;56.20;;;;;;5156474;27;20031;-79
2021/05/07 01:47:42;;;;;;;13.02;8.27;;;9.50;56.40;;;;;;5156153;27;20463;-79
2021/05/07 01:50:09;;;;;;;14.32;9.30;;;9.40;56.60;;;;;;5156108;27;20029;-79
2021/05/07 01:52:35;;;;;;;15.32;9.73;;;9.40;56.90;;;;;;5137220;27;20404;-79
2021/05/07 01:55:02;;;;;;;18.80;11.68;;;9.30;57.20;;;;;;5156170;27;20023;-79
2021/05/07 01:57:32;;;;;;;25.17;12.75;;;9.30;57.60;;;;;;5156788;27;20027;-79
2021/05/07 01:59:58;;;;;;;31.92;13.43;;;9.20;58.20;;;;;;5155911;27;20027;-79
2021/05/07 02:02:24;;;;;;;22.42;13.02;;;9.10;58.60;;;;;;5156828;27;20067;-80
2021/05/07 02:04:50;;;;;;;29.38;13.88;;;9.00;59.00;;;;;;5137795;27;20539;-79
2021/05/07 02:07:16;;;;;;;28.67;14.48;;;8.90;59.40;;;;;;5156130;27;20061;-79
2021/05/07 02:09:43;;;;;;;25.50;15.77;;;8.80;59.90;;;;;;5155842;27;20075;-79
2021/05/07 02:12:09;;;;;;;23.90;13.77;;;8.70;60.30;;;;;;5155601;27;20023;-80
2021/05/07 02:14:36;;;;;;;23.67;13.30;;;8.60;60.80;;;;;;5156895;27;20031;-79
2021/05/07 02:17:02;;;;;;;21.20;12.88;;;8.50;61.30;;;;;;5155998;27;20438;-79
2021/05/07 02:19:28;;;;;;;23.02;13.00;;;8.40;61.70;;;;;;5155321;27;20034;-80
2021/05/07 02:21:54;;;;;;;24.13;13.48;;;8.40;62.30;;;;;;5154187;27;20023;-79
2021/05/07 02:24:19;;;;;;;20.80;13.52;;;8.30;62.70;;;;;;5155997;27;20071;-79
2021/05/07 02:26:45;;;;;;;25.77;12.38;;;8.20;63.00;;;;;;5155658;27;20027;-79
2021/05/07 02:29:11;;;;;;;20.05;12.73;;;8.20;63.50;;;;;;5155088;27;20074;-79
2021/05/07 02:31:37;;;;;;;26.73;13.00;;;8.10;63.70;;;;;;5155367;27;20023;-79
2021/05/07 02:34:03;;;;;;;24.08;12.80;;;8.10;64.10;;;;;;5152582;27;20030;-79
2021/05/07 02:36:29;;;;;;;23.42;12.60;;;8.10;64.40;;;;;;5155059;27;20101;-79
2021/05/07 02:38:54;;;;;;;20.67;13.02;;;8.00;64.60;;;;;;5157226;27;20106;-79
2021/05/07 02:41:20;;;;;;;25.05;12.15;;;8.00;64.90;;;;;;5137304;27;20047;-79
2021/05/07 02:43:46;;;;;;;19.50;12.63;;;8.00;65.00;;;;;;5138664;27;20033;-79
2021/05/07 02:46:14;;;;;;;24.77;11.57;;;8.00;65.20;;;;;;5139033;27;20037;-79
2021/05/07 02:48:40;;;;;;;20.48;11.18;;;8.00;65.40;;;;;;5127397;27;20539;-79
2021/05/07 02:51:06;;;;;;;20.35;12.15;;;8.00;65.50;;;;;;5117858;28;20024;-79
2021/05/07 02:53:31;;;;;;;21.88;11.45;;;8.00;65.70;;;;;;5118485;28;20068;-80
2021/05/07 02:55:57;;;;;;;19.38;11.40;;;8.00;65.80;;;;;;5117600;28;20047;-78
2021/05/07 02:58:23;;;;;;;18.55;11.18;;;8.00;65.80;;;;;;5125079;27;20062;-79
2021/05/07 03:00:48;;;;;;;17.67;10.52;;;8.00;65.70;;;;;;5135931;27;20038;-79
2021/05/07 03:03:14;;;;;;;19.02;10.60;;;8.10;65.70;;;;;;5136605;27;20469;-79
2021/05/07 03:05:40;;;;;;;21.60;11.40;;;8.10;65.60;;;;;;5138179;27;20039;-79
2021/05/07 03:08:06;;;;;;;20.95;9.70;;;8.20;66.10;;;;;;5137036;27;20038;-79
2021/05/07 03:10:31;;;;;;;17.52;10.05;;;8.20;65.20;;;;;;5128582;27;20027;-80
2021/05/07 03:12:57;;;;;;;18.33;9.20;;;8.30;65.00;;;;;;5097154;28;20024;-79
2021/05/07 03:15:23;;;;;;;18.05;9.55;;;8.40;64.80;;;;;;5117337;27;20032;-79
2021/05/07 03:17:53;;;;;;;18.42;9.80;;;8.40;64.50;;;;;;5117347;28;20057;-79
2021/05/07 03:20:18;;;;;;;17.67;9.15;;;8.60;64.20;;;;;;5117405;28;20031;-79
2021/05/07 03:22:44;;;;;;;17.48;9.18;;;8.60;63.90;;;;;;5123371;27;20030;-79
2021/05/07 03:25:11;;;;;;;14.10;8.27;;;8.70;63.60;;;;;;5137978;27;20023;-79
2021/05/07 03:27:36;;;;;;;16.67;8.88;;;8.80;63.30;;;;;;5137592;27;20027;-79
2021/05/07 03:30:04;;;;;;;17.83;9.55;;;8.90;63.00;;;;;;5136281;27;20072;-79
2021/05/07 03:32:30;;;;;;;18.73;9.57;;;9.00;62.80;;;;;;5133151;27;20024;-80
2021/05/07 03:34:56;;;;;;;19.00;9.15;;;9.10;62.60;;;;;;5115590;28;20028;-79
2021/05/07 03:37:21;;;;;;;16.48;8.85;;;9.20;62.30;;;;;;5116906;28;20039;-79
2021/05/07 03:39:48;;;;;;;22.50;11.10;;;9.20;62.00;;;;;;5116501;28;20020;-80
2021/05/07 03:42:14;;;;;;;16.42;9.25;;;9.20;61.80;;;;;;5145073;27;20559;-80
2021/05/07 03:44:39;;;;;;;17.73;8.77;;;9.30;61.80;;;;;;5158126;27;20105;-80
2021/05/07 03:47:05;;;;;;;15.13;7.68;;;9.40;61.70;;;;;;5158509;27;20027;-79
2021/05/07 03:49:31;;;;;;;17.98;9.07;;;9.40;61.50;;;;;;5156749;27;20187;-79
2021/05/07 03:52:01;;;;;;;20.30;10.25;;;9.50;61.50;;;;;;5135140;27;20023;-79
2021/05/07 03:54:28;;;;;;;18.85;9.75;;;9.60;61.40;;;;;;5137162;27;20027;-79
2021/05/07 03:56:53;;;;;;;19.30;9.23;;;9.70;61.30;;;;;;5137564;27;20030;-79
2021/05/07 03:59:19;;;;;;;15.77;8.23;;;9.90;61.20;;;;;;5137015;27;20035;-79
2021/05/07 04:01:45;;;;;;;17.83;9.43;;;10.00;60.80;;;;;;5148829;27;20098;-80
2021/05/07 04:04:11;;;;;;;18.05;9.95;;;10.00;60.40;;;;;;5139408;27;20026;-80
2021/05/07 04:06:37;;;;;;;16.02;9.43;;;10.10;60.40;;;;;;5157765;27;20099;-80
2021/05/07 04:09:14;;;;;;;18.60;8.82;;;10.20;60.20;;;;;;5157854;27;20038;-77
2021/05/07 04:14:15;;;;;;;12.20;7.03;;;10.30;59.70;;;;;;5136638;27;20054;-79
2021/05/07 04:16:40;;;;;;;12.80;7.60;;;10.40;59.50;;;;;;5150672;27;20392;-79
2021/05/07 04:19:06;;;;;;;18.80;8.40;;;10.40;59.30;;;;;;5156263;27;20027;-79
2021/05/07 04:21:32;;;;;;;21.55;7.78;;;10.50;59.30;;;;;;5156604;27;20030;-79
2021/05/07 04:23:57;;;;;;;19.55;9.05;;;10.50;59.30;;;;;;5156669;27;20118;-80
2021/05/07 04:26:23;;;;;;;13.95;8.52;;;10.60;59.40;;;;;;5156637;27;20022;-79
2021/05/07 04:28:49;;;;;;;15.15;8.38;;;10.70;59.40;;;;;;5156713;27;20019;-78
2021/05/07 04:31:14;;;;;;;15.38;8.38;;;10.70;59.20;;;;;;5156735;27;20460;-79
2021/05/07 04:33:40;;;;;;;12.77;8.65;;;10.80;59.20;;;;;;5156258;27;20023;-79
2021/05/07 04:36:06;;;;;;;15.10;8.93;;;10.80;59.10;;;;;;5156499;27;20026;-79
2021/05/07 04:38:32;;;;;;;14.95;9.05;;;10.90;59.10;;;;;;5156525;27;20114;-79
2021/05/07 04:40:58;;;;;;;13.90;8.95;;;10.90;58.90;;;;;;5157044;27;20034;-79
2021/05/07 04:43:24;;;;;;;18.50;10.35;;;10.90;58.80;;;;;;5156810;27;20464;-79
2021/05/07 04:45:51;;;;;;;16.20;9.57;;;11.00;58.80;;;;;;5156461;27;20031;-79
2021/05/07 04:48:16;;;;;;;15.38;9.73;;;11.00;58.80;;;;;;5156225;27;20035;-78
2021/05/07 04:50:43;;;;;;;18.02;10.30;;;11.00;59.00;;;;;;5156345;27;20082;-80
2021/05/07 04:53:09;;;;;;;19.38;11.98;;;11.00;59.30;;;;;;5156225;27;20027;-78
2021/05/07 04:55:35;;;;;;;22.33;10.93;;;11.10;59.50;;;;;;5156552;27;20053;-81
2021/05/07 04:58:01;;;;;;;17.60;9.60;;;11.20;59.50;;;;;;5155908;27;20029;-80
2021/05/07 05:00:26;;;;;;;14.73;8.45;;;11.30;59.30;;;;;;5138193;27;20027;-80
2021/05/07 05:02:53;;;;;;;12.85;8.20;;;11.30;59.10;;;;;;5155861;27;20026;-80
2021/05/07 05:05:19;;;;;;;12.95;7.90;;;11.40;58.80;;;;;;5155978;27;20031;-80
2021/05/07 05:07:52;;;;;;;14.75;7.63;;;11.50;58.50;;;;;;5137550;27;20141;-79
2021/05/07 05:10:22;;;;;;;11.13;7.50;;;11.60;58.30;;;;;;5156503;27;20071;-79
2021/05/07 05:12:48;;;;;;;14.88;7.40;;;11.80;58.10;;;;;;5156174;27;20019;-80
2021/05/07 05:15:14;;;;;;;13.60;7.75;;;11.90;57.80;;;;;;5155069;27;20083;-80
2021/05/07 05:17:40;;;;;;;13.02;7.88;;;12.00;57.70;;;;;;5144380;27;20023;-80
2021/05/07 05:20:07;;;;;;;15.43;8.10;;;12.10;57.50;;;;;;5146612;27;20028;-80
2021/05/07 05:22:33;;;;;;;13.57;7.85;;;12.20;57.20;;;;;;5142189;27;20384;-80
2021/05/07 05:25:04;;;;;;;11.23;7.00;;;12.40;56.80;;;;;;5127295;27;20018;-80
2021/05/07 05:27:29;;;;;;;16.48;7.72;;;12.50;56.40;;;;;;5138196;27;20023;-79
2021/05/07 05:29:55;;;;;;;17.77;7.10;;;12.70;55.90;;;;;;5135449;27;20028;-79
2021/05/07 05:32:21;;;;;;;14.93;7.82;;;12.90;55.50;;;;;;5141387;27;20030;-79
2021/05/07 05:34:46;;;;;;;17.10;7.85;;;13.00;55.00;;;;;;5156465;27;20027;-79
2021/05/07 05:37:12;;;;;;;14.15;8.07;;;13.20;54.60;;;;;;5155491;27;20027;-78
2021/05/07 05:39:38;;;;;;;16.10;8.07;;;13.40;54.30;;;;;;5156079;27;20026;-83
2021/05/07 05:42:04;;;;;;;20.77;9.27;;;13.60;53.90;;;;;;5155256;27;20055;-79
2021/05/07 05:44:29;;;;;;;14.27;8.35;;;13.70;53.40;;;;;;5154123;27;20026;-78
2021/05/07 05:46:55;;;;;;;13.65;8.25;;;13.90;52.90;;;;;;5155307;27;20121;-78
2021/05/07 05:49:21;;;;;;;17.88;8.68;;;14.10;52.60;;;;;;5155227;27;20412;-79
2021/05/07 05:51:46;;;;;;;13.45;6.30;;;14.30;52.10;;;;;;5155171;27;20023;-78
2021/05/07 05:54:12;;;;;;;10.27;5.38;;;14.60;51.40;;;;;;5154899;27;20043;-80
2021/05/07 05:56:39;;;;;;;12.60;7.05;;;14.70;50.30;;;;;;5154674;27;20405;-79
2021/05/07 05:59:05;;;;;;;24.88;9.20;;;14.80;49.80;;;;;;5155129;27;20070;-79
2021/05/07 06:01:30;;;;;;;43.97;13.40;;;14.90;49.30;;;;;;5154837;27;20368;-79
2021/05/07 06:03:56;;;;;;;44.30;14.02;;;14.90;48.90;;;;;;5155312;27;20023;-79
2021/05/07 06:06:22;;;;;;;39.25;12.90;;;15.00;48.70;;;;;;5136972;27;20023;-79
2021/05/07 06:08:47;;;;;;;41.88;11.70;;;15.10;48.80;;;;;;5155393;27;20096;-79
2021/05/07 06:11:13;;;;;;;61.10;17.60;;;15.20;48.80;;;;;;5155908;27;20093;-79
2021/05/07 06:13:39;;;;;;;51.20;17.08;;;15.40;48.40;;;;;;5136693;27;20349;-80
2021/05/07 06:16:05;;;;;;;73.32;17.70;;;15.60;47.80;;;;;;5142058;27;20027;-79
2021/05/07 06:18:31;;;;;;;71.70;18.60;;;15.80;47.30;;;;;;5153342;27;20048;-80
2021/05/07 06:20:57;;;;;;;69.75;16.63;;;15.90;46.50;;;;;;5158958;27;20027;-80
2021/05/07 06:23:22;;;;;;;78.40;20.45;;;16.10;46.00;;;;;;5159132;27;20018;-79
2021/05/07 06:25:49;;;;;;;64.97;17.77;;;16.30;45.10;;;;;;5159344;27;20030;-80
2021/05/07 06:28:15;;;;;;;68.65;18.35;;;16.40;44.40;;;;;;5159900;27;20027;-80
2021/05/07 06:30:41;;;;;;;67.72;17.58;;;16.50;44.20;;;;;;5159729;27;20460;-81
2021/05/07 06:33:06;;;;;;;80.25;17.02;;;16.60;44.40;;;;;;5152001;27;20075;-81
2021/05/07 06:35:32;;;;;;;74.47;18.58;;;16.70;44.30;;;;;;5147095;27;20022;-81
2021/05/07 06:37:59;;;;;;;75.60;17.90;;;16.80;44.20;;;;;;5146477;27;20457;-81
2021/05/07 06:40:25;;;;;;;30.40;9.30;;;16.80;44.00;;;;;;5146082;27;20468;-80
2021/05/07 06:42:51;;;;;;;38.67;11.02;;;16.80;44.00;;;;;;5146934;27;20049;-79
2021/05/07 06:45:17;;;;;;;30.08;9.40;;;16.80;43.60;;;;;;5146259;27;20110;-79
2021/05/07 06:47:43;;;;;;;37.65;11.25;;;16.80;43.40;;;;;;5134270;27;20072;-79
2021/05/07 06:50:11;;;;;;;28.60;7.60;;;16.80;43.10;;;;;;5153048;27;20447;-80
2021/05/07 06:52:37;;;;;;;44.03;11.73;;;16.90;43.20;;;;;;5157690;27;20054;-80
2021/05/07 06:55:04;;;;;;;52.65;12.85;;;16.90;43.20;;;;;;5138743;27;20511;-81
2021/05/07 06:57:30;;;;;;;47.65;12.93;;;17.00;43.50;;;;;;5159056;27;20030;-79
2021/05/07 06:59:56;;;;;;;48.25;11.95;;;17.10;43.50;;;;;;5136557;27;20465;-79
2021/05/07 07:02:21;;;;;;;37.97;10.02;;;17.30;43.50;;;;;;5155631;27;20033;-79
2021/05/07 07:04:47;;;;;;;31.08;9.05;;;17.40;43.20;;;;;;5158858;27;20048;-81
2021/05/07 07:07:13;;;;;;;16.38;5.00;;;17.60;43.10;;;;;;5150550;27;20079;-81
2021/05/07 07:09:39;;;;;;;10.63;4.18;;;17.80;41.30;;;;;;5143702;27;20019;-81
2021/05/07 07:12:06;;;;;;;19.60;5.68;;;18.00;40.20;;;;;;5138766;27;20076;-81
2021/05/07 07:14:36;;;;;;;17.00;5.47;;;18.20;39.20;;;;;;5139050;27;20023;-80
2021/05/07 07:17:02;;;;;;;21.00;6.40;;;18.30;38.60;;;;;;5151766;27;20465;-80
2021/05/07 07:19:28;;;;;;;15.48;5.40;;;18.50;38.20;;;;;;5146271;27;20526;-81
2021/05/07 07:21:54;;;;;;;14.27;4.78;;;18.70;37.80;;;;;;5153120;27;20026;-80
2021/05/07 07:24:19;;;;;;;15.70;5.45;;;18.80;37.50;;;;;;5133272;27;20027;-80
2021/05/07 07:26:45;;;;;;;16.67;5.97;;;19.00;37.20;;;;;;5145087;27;20062;-79
2021/05/07 07:29:11;;;;;;;22.00;6.47;;;19.20;37.00;;;;;;5156406;27;20023;-80
2021/05/07 07:31:36;;;;;;;16.05;3.95;;;19.40;36.80;;;;;;5147721;27;20033;-79
2021/05/07 07:34:02;;;;;;;8.82;3.70;;;19.70;36.60;;;;;;5131470;27;20018;-80
2021/05/07 07:36:28;;;;;;;7.93;3.90;;;20.00;36.20;;;;;;5147677;27;20026;-79
2021/05/07 07:38:54;;;;;;;6.18;1.80;;;20.20;35.80;;;;;;5152875;27;20068;-79
2021/05/07 07:41:20;;;;;;;3.35;1.80;;;20.30;34.80;;;;;;5151462;27;20046;-80
2021/05/07 07:43:45;;;;;;;2.75;1.98;;;20.40;34.60;;;;;;5145980;27;20024;-81
2021/05/07 07:46:11;;;;;;;2.38;1.80;;;20.40;34.40;;;;;;5147963;27;20030;-80
2021/05/07 07:48:37;;;;;;;3.70;1.83;;;20.50;34.50;;;;;;5153185;27;20197;-80
2021/05/07 07:51:03;;;;;;;5.57;2.17;;;20.70;34.40;;;;;;5158265;27;20080;-81
2021/05/07 07:53:28;;;;;;;4.22;1.85;;;20.90;34.10;;;;;;5146373;27;20022;-80
2021/05/07 07:55:54;;;;;;;3.92;1.98;;;21.10;33.70;;;;;;5136621;27;20069;-81
2021/05/07 07:58:20;;;;;;;2.65;1.38;;;21.10;33.50;;;;;;5130571;27;20395;-81
2021/05/07 08:00:47;;;;;;;5.60;2.42;;;21.20;33.10;;;;;;5134429;27;20027;-82
2021/05/07 08:03:13;;;;;;;5.18;1.95;;;21.30;33.30;;;;;;5128060;27;20062;-81
2021/05/07 08:05:39;;;;;;;4.03;1.67;;;21.40;32.70;;;;;;5145635;27;20058;-81
2021/05/07 08:08:05;;;;;;;1.40;1.30;;;21.40;32.30;;;;;;5147148;27;20522;-80
2021/05/07 08:10:30;;;;;;;4.15;1.42;;;21.30;31.70;;;;;;5155907;27;20054;-80
2021/05/07 08:12:56;;;;;;;2.85;1.67;;;21.30;31.30;;;;;;5139476;27;20024;-81
2021/05/07 08:15:22;;;;;;;5.07;1.58;;;21.40;31.30;;;;;;5138508;27;20457;-81
2021/05/07 08:17:49;;;;;;;2.00;1.25;;;21.30;31.30;;;;;;5157053;27;20057;-82
2021/05/07 08:20:16;;;;;;;2.53;1.33;;;21.30;31.10;;;;;;5156579;27;20045;-81
2021/05/07 08:22:43;;;;;;;3.50;1.75;;;21.30;31.00;;;;;;5157066;27;20029;-79
2021/05/07 08:25:13;;;;;;;4.18;1.70;;;21.40;31.10;;;;;;5156919;27;20029;-80
2021/05/07 08:27:40;;;;;;;1.98;1.45;;;21.60;31.20;;;;;;5154081;27;20035;-80
2021/05/07 08:30:07;;;;;;;3.42;1.60;;;21.70;31.20;;;;;;5145629;27;20041;-82
2021/05/07 08:32:33;;;;;;;4.53;2.00;;;21.90;31.30;;;;;;5156344;27;20033;-81
2021/05/07 08:35:00;;;;;;;5.82;2.00;;;22.10;31.60;;;;;;5156728;27;20031;-80
2021/05/07 08:37:26;;;;;;;4.78;2.05;;;22.30;31.60;;;;;;5155986;27;20035;-80
2021/05/07 08:39:52;;;;;;;4.57;2.53;;;22.40;30.90;;;;;;5151286;27;20035;-80
2021/05/07 08:42:20;;;;;;;7.60;4.22;;;22.30;30.30;;;;;;5136576;27;20051;-81
2021/05/07 08:44:50;;;;;;;6.38;3.15;;;22.20;30.30;;;;;;5148509;27;20027;-81
2021/05/07 08:47:20;;;;;;;7.95;3.63;;;22.10;30.10;;;;;;5136462;27;20066;-80
2021/05/07 08:49:50;;;;;;;3.67;2.22;;;22.00;30.00;;;;;;5136120;27;20023;-80
2021/05/07 08:52:18;;;;;;;9.32;5.80;;;21.90;30.00;;;;;;5136507;27;20049;-80
2021/05/07 08:54:45;;;;;;;5.45;4.07;;;21.90;29.90;;;;;;5135962;27;20058;-81
2021/05/07 08:57:11;;;;;;;6.03;2.30;;;21.90;30.00;;;;;;5138496;27;20039;-81
2021/05/07 08:59:36;;;;;;;4.88;1.75;;;21.90;30.00;;;;;;5146195;27;20385;-81
2021/05/07 09:02:02;;;;;;;3.13;1.63;;;22.00;29.90;;;;;;5144831;27;20044;-81
2021/05/07 09:04:28;;;;;;;3.72;2.92;;;22.00;30.00;;;;;;5144133;27;20029;-80
2021/05/07 09:06:54;;;;;;;7.18;2.83;;;22.20;30.00;;;;;;5145584;27;20022;-80
2021/05/07 09:09:23;;;;;;;5.63;1.80;;;22.40;30.10;;;;;;5144000;27;20019;-82
2021/05/07 09:11:50;;;;;;;3.53;1.40;;;22.50;30.00;;;;;;5143730;27;20345;-82
2021/05/07 09:14:16;;;;;;;3.58;1.65;;;22.60;29.90;;;;;;5147789;27;20050;-81
2021/05/07 09:16:53;;;;;;;4.68;1.40;;;22.60;29.90;;;;;;5144247;27;20361;-80
2021/05/07 09:19:25;;;;;;;3.65;1.48;;;22.80;29.90;;;;;;5143659;27;20531;-80
2021/05/07 09:21:51;;;;;;;3.03;1.48;;;23.10;30.00;;;;;;5145577;27;20031;-81
2021/05/07 09:24:18;;;;;;;2.58;1.50;;;23.40;29.90;;;;;;5124830;27;20020;-81
2021/05/07 09:26:50;;;;;;;3.25;1.52;;;23.80;29.80;;;;;;5145300;27;20054;-81
2021/05/07 09:29:25;;;;;;;3.67;1.55;;;24.10;29.30;;;;;;5144785;27;20051;-81
2021/05/07 09:31:51;;;;;;;2.15;1.30;;;24.20;29.30;;;;;;5146023;27;20018;-82
2021/05/07 09:34:20;;;;;;;2.28;1.27;;;24.10;29.00;;;;;;5147083;27;20019;-81
2021/05/07 09:36:46;;;;;;;5.78;1.95;;;24.00;28.90;;;;;;5143967;27;20018;-80
2021/05/07 09:39:21;;;;;;;4.55;2.05;;;24.00;29.10;;;;;;5143453;27;20487;-82
2021/05/07 09:41:49;;;;;;;1.83;1.38;;;24.10;29.00;;;;;;5150367;27;20523;-81
2021/05/07 09:44:19;;;;;;;5.03;2.00;;;24.20;28.80;;;;;;5156308;27;20019;-81
2021/05/07 09:46:45;;;;;;;6.35;1.63;;;24.50;28.90;;;;;;5143017;27;20164;-81
2021/05/07 09:49:28;;;;;;;3.65;1.38;;;25.10;28.90;;;;;;5133738;27;20058;-80
2021/05/07 09:51:54;;;;;;;2.85;1.17;;;25.60;28.50;;;;;;5134422;27;20110;-81
2021/05/07 09:54:20;;;;;;;3.67;1.42;;;26.10;28.30;;;;;;5124301;27;20046;-80
2021/05/07 09:56:46;;;;;;;4.28;1.67;;;26.40;28.10;;;;;;5137082;27;20376;-80
2021/05/07 09:59:12;;;;;;;4.22;1.83;;;26.70;27.90;;;;;;5135069;28;20480;-81
2021/05/07 10:01:39;;;;;;;5.90;1.58;;;26.70;27.60;;;;;;5138057;27;20064;-79
2021/05/07 10:04:05;;;;;;;6.90;1.55;;;26.60;27.40;;;;;;5145757;27;20019;-81
2021/05/07 10:06:32;;;;;;;3.97;1.92;;;26.40;27.40;;;;;;5144388;27;20029;-81
2021/05/07 10:08:59;;;;;;;5.15;2.05;;;25.80;27.30;;;;;;5145940;27;20021;-80
2021/05/07 10:11:33;;;;;;;3.78;2.22;;;25.20;27.50;;;;;;5152984;27;20027;-80
2021/05/07 10:14:06;;;;;;;7.43;2.05;;;24.70;27.90;;;;;;5112132;28;20096;-80
2021/05/07 10:16:32;;;;;;;4.70;2.08;;;24.50;28.10;;;;;;5153786;27;20545;-80
2021/05/07 10:19:03;;;;;;;1.73;1.58;;;24.40;28.30;;;;;;5134899;27;20035;-81
2021/05/07 10:21:38;;;;;;;2.83;1.98;;;24.70;28.40;;;;;;5146133;27;20441;-80
2021/05/07 10:24:06;;;;;;;1.58;1.27;;;24.70;28.30;;;;;;5142938;27;20465;-80
2021/05/07 10:26:46;;;;;;;2.97;1.50;;;24.60;28.30;;;;;;5145103;27;20076;-81
2021/05/07 10:29:22;;;;;;;6.35;1.80;;;24.30;28.50;;;;;;5145318;27;20034;-81
2021/05/07 10:31:52;;;;;;;3.08;1.52;;;24.30;28.90;;;;;;5151095;27;20385;-82
2021/05/07 10:34:19;;;;;;;4.55;1.95;;;24.60;28.90;;;;;;5121394;27;20087;-81
2021/05/07 10:37:02;;;;;;;10.82;2.67;;;24.90;28.80;;;;;;5144086;27;20040;-81
2021/05/07 10:39:31;;;;;;;9.45;3.33;;;25.30;28.50;;;;;;5150156;27;20079;-82
2021/05/07 10:41:59;;;;;;;9.85;2.78;;;25.50;28.50;;;;;;5144108;27;20069;-81
2021/05/07 10:44:27;;;;;;;6.45;2.67;;;26.00;28.60;;;;;;5143491;27;20484;-81
2021/05/07 10:46:58;;;;;;;5.82;2.40;;;26.40;28.40;;;;;;5144237;27;20475;-81
2021/05/07 10:49:32;;;;;;;6.15;2.13;;;26.40;28.00;;;;;;5145481;27;20022;-81
2021/05/07 10:51:58;;;;;;;4.82;2.50;;;25.80;27.80;;;;;;5143980;27;20027;-82
2021/05/07 10:54:38;;;;;;;4.72;2.17;;;25.30;28.10;;;;;;5144022;27;20101;-80
2021/05/07 10:57:05;;;;;;;2.38;1.70;;;24.60;28.40;;;;;;5145305;27;20030;-80
2021/05/07 10:59:31;;;;;;;4.07;1.80;;;24.10;28.60;;;;;;5142377;27;20024;-80
2021/05/07 11:01:58;;;;;;;4.00;1.60;;;23.70;28.80;;;;;;5138106;27;20072;-79
2021/05/07 11:04:25;;;;;;;4.75;1.98;;;23.40;29.10;;;;;;5158470;27;20041;-80
2021/05/07 11:07:04;;;;;;;2.50;1.20;;;23.10;29.40;;;;;;5158293;27;20072;-81
2021/05/07 11:09:30;;;;;;;2.38;1.48;;;22.90;29.70;;;;;;5158315;27;20357;-80
2021/05/07 11:12:03;;;;;;;2.80;1.60;;;23.00;30.00;;;;;;5158884;27;20030;-82
2021/05/07 11:17:16;;;;;;;9.68;2.53;;;23.00;29.80;;;;;;5143609;27;20066;-81
2021/05/07 11:19:43;;;;;;;2.97;1.35;;;22.80;29.90;;;;;;5158056;27;20039;-80
2021/05/07 11:22:09;;;;;;;6.22;2.20;;;22.70;29.90;;;;;;5153971;27;20061;-81
2021/05/07 11:24:39;;;;;;;4.55;2.30;;;22.40;30.00;;;;;;5158273;27;20046;-81
2021/05/07 11:27:21;;;;;;;8.25;1.90;;;22.20;30.40;;;;;;5136529;27;20062;-83
2021/05/07 11:29:48;;;;;;;11.77;2.50;;;21.80;30.90;;;;;;5140137;27;20468;-80
2021/05/07 11:32:21;;;;;;;26.83;3.58;;;21.50;31.50;;;;;;5157877;27;20023;-84
2021/05/07 11:34:54;;;;;;;7.35;2.05;;;21.30;32.30;;;;;;5149494;27;20132;-80
2021/05/07 11:37:21;;;;;;;1.50;1.40;;;21.10;32.70;;;;;;5137353;27;20042;-81
2021/05/07 11:40:06;;;;;;;6.50;1.77;;;20.90;32.70;;;;;;5132910;27;20091;-80
2021/05/07 11:42:32;;;;;;;;;;;20.70;33.20;;;;;;5137239;27;20078;-81
2021/05/07 11:44:59;;;;;;;21.58;2.80;;;20.50;33.40;;;;;;5133483;27;19957;-80
2021/05/07 11:47:29;;;;;;;10.15;2.47;;;20.30;33.80;;;;;;5135795;27;20031;-82
2021/05/07 11:49:55;;;;;;;7.40;2.50;;;20.20;34.20;;;;;;5133462;27;20581;-81
2021/05/07 11:52:32;;;;;;;9.20;2.10;;;20.10;34.70;;;;;;5141039;27;20189;-81
2021/05/07 11:55:02;;;;;;;8.40;2.20;;;20.00;35.60;;;;;;5157346;27;20023;-80
2021/05/07 11:57:30;;;;;;;5.93;1.92;;;19.90;36.50;;;;;;5155005;27;20480;-81
2021/05/07 11:59:56;;;;;;;4.18;1.88;;;19.60;37.70;;;;;;5148738;27;20034;-81
2021/05/07 12:02:27;;;;;;;4.75;1.80;;;19.40;38.50;;;;;;5135668;27;20056;-79
2021/05/07 12:04:56;;;;;;;3.28;1.73;;;19.20;38.60;;;;;;5134803;27;20027;-83
2021/05/07 12:07:26;;;;;;;3.70;1.85;;;19.10;38.90;;;;;;5136422;27;20027;-80
2021/05/07 12:09:52;;;;;;;3.47;1.70;;;19.00;39.20;;;;;;5144385;27;20029;-81
2021/05/07 12:12:18;;;;;;;4.25;1.70;;;18.90;39.10;;;;;;5147376;27;20038;-81
2021/05/07 12:18:15;;;;;;;2.75;2.22;;;18.90;39.30;;;;;;5146073;27;20576;-80
2021/05/07 12:21:03;;;;;;;13.65;2.85;;;19.00;39.40;;;;;;5145349;27;20442;-80
2021/05/07 12:23:47;;;;;;;6.38;2.22;;;19.10;39.50;;;;;;5145828;27;20035;-81
2021/05/07 12:26:14;;;;;;;2.55;2.20;;;19.30;39.30;;;;;;5124577;27;20019;-79
2021/05/07 12:28:40;;;;;;;12.85;3.22;;;19.60;39.10;;;;;;5145713;27;20050;-81
2021/05/07 12:31:09;;;;;;;4.78;2.90;;;19.90;38.90;;;;;;5145672;27;20023;-80
2021/05/07 12:33:36;;;;;;;6.00;4.30;;;20.20;38.50;;;;;;5138464;27;20031;-80
2021/05/07 12:36:12;;;;;;;10.73;6.63;;;20.70;38.20;;;;;;5150832;27;20048;-81
2021/05/07 12:38:39;;;;;;;15.68;6.07;;;21.30;38.10;;;;;;5150293;27;20388;-82
2021/05/07 12:41:19;;;;;;;12.05;7.10;;;21.60;36.70;;;;;;5156991;27;20117;-80
2021/05/07 12:43:50;;;;;;;10.48;5.70;;;21.60;36.00;;;;;;5154513;27;20025;-80
2021/05/07 12:46:17;;;;;;;8.30;4.43;;;21.50;35.90;;;;;;5135739;27;20066;-79
2021/05/07 12:48:51;;;;;;;13.88;5.32;;;21.20;35.90;;;;;;5132314;27;20475;-83
2021/05/07 12:51:19;;;;;;;14.40;5.43;;;21.00;36.00;;;;;;5135512;27;20058;-79